Česky Dansk Deutsch English Español Suomi Français Magyar Italiano Nederlands norsk Polski Português svenska Türkçe

 

Het Weer

Plovdiv (Bulgarije)

04:30, 21 augustus 2016 (GMT)

NWNNE
WE
SWSSE
Home            
Plovdiv Sofia Observ. Chrysoupoli Airport Gorna Orechovista Alexandroupoli Airport Rousse Burgas Thessaloniki Airport Craiova Limnos Airport Skopje-Petrovec Canakkale Nis Camp Bondsteel Varna Corlu Bucuresti / Imh Bucuresti Otopeni Pristina Kozani Airport Bandirma Larissa Airport Skiathos Island

Om een weerknop op uw website of weblog te plaatsen, copieer onderstaande code en plak die in uw pagina. In het eerste vakje staat HTML-code, in het tweede vakje UBB-code.


Add to Google

Details

Wind speed:1 bf, 3 kn, 1.5 m/s, 3.5 miles/h, 5.6 km/h
Wind direction:SW, 220° - WNW, 290°
Visibility:Greater than 10000 m, 10 km, 32800 ft, 6.2 miles
Temperature:20°C, 68°F
Dew-point:16°C, 61°F
Atmospheric pressure:1017 hPa, 762.8 mmHg, 30.03 inHg, 1.004 atm
Relative humidity:77.8 %
METAR:LBPD 210430Z AUTO 25003KT 220V290 9999 NCD 20/16 Q1017 NOSIG

Snelkoppelingen

Actuele weersinformatie van de hele wereld. Voeg locaties toe met het plus (+) symbool. Deze snelkoppelingen kunnen worden toegevoegd aan Google.

Lid van de Technetium groep

website free tracking
StatCounter NetStat W3C Validator

05-10-2022 09:37:16
astro.technetium.be money.technetium.be phote.technetium.be tafeltennistafel.technetium.be www.ligfiets.net